Time;durP1;ratioP1;P1;durP2;ratioP2;P2;SDS_P1;SDS_P2;PMS_P1;PMS_P2;Temp;Humidity;BMP_temperature;BMP_pressure;BME280_temperature;BME280_humidity;BME280_pressure;Samples;Min_cycle;Max_cycle;Signal;HPM_P1;HPM_P2
2022/06/25 00:02:47;;;;;;;0.20;0.20;;;;;;;;;;6269274;22;20174;-89
2022/06/25 00:55:39;;;;;;;0.20;0.20;;;;;;;;;;6262270;22;20598;-87
2022/06/25 00:58:46;;;;;;;0.30;0.30;;;;;;;;;;6269266;22;20153;-87
2022/06/25 01:01:51;;;;;;;0.20;0.20;;;;;;;;;;6269207;22;20533;-90
2022/06/25 01:04:57;;;;;;;0.30;0.30;;;;;;;;;;6269820;22;20169;-88
2022/06/25 01:08:02;;;;;;;0.20;0.20;;;;;;;;;;6268578;22;20173;-88
2022/06/25 01:11:11;;;;;;;0.85;0.65;;;;;;;;;;6267765;22;20177;-87
2022/06/25 01:14:16;;;;;;;0.30;0.30;;;;;;;;;;6269741;22;20162;-89
2022/06/25 01:17:21;;;;;;;0.20;0.20;;;;;;;;;;6269918;22;20333;-88
2022/06/25 01:20:28;;;;;;;0.20;0.20;;;;;;;;;;6270429;22;20558;-88
2022/06/25 01:23:35;;;;;;;0.30;0.30;;;;;;;;;;6270287;22;20170;-88
2022/06/25 01:26:43;;;;;;;0.30;0.30;;;;;;;;;;6268572;22;20178;-88
2022/06/25 01:29:49;;;;;;;1.45;0.70;;;;;;;;;;6269357;22;20173;-89
2022/06/25 01:32:54;;;;;;;0.20;0.20;;;;;;;;;;6268692;22;20189;-89
2022/06/25 01:35:59;;;;;;;0.20;0.20;;;;;;;;;;6287876;22;20165;-88
2022/06/25 01:39:06;;;;;;;0.20;0.20;;;;;;;;;;6268866;22;20185;-90
2022/06/25 01:42:58;;;;;;;2.95;0.88;;;;;;;;;;6268208;22;20165;-90
2022/06/25 01:45:38;;;;;;;0.32;0.32;;;;;;;;;;6269165;22;20174;-88
2022/06/25 01:48:43;;;;;;;0.20;0.20;;;;;;;;;;6267462;22;20663;-88
2022/06/25 01:51:48;;;;;;;0.20;0.20;;;;;;;;;;6267826;22;20619;-89
2022/06/25 01:54:55;;;;;;;0.20;0.20;;;;;;;;;;6266908;22;20161;-89
2022/06/25 01:58:00;;;;;;;0.20;0.20;;;;;;;;;;6265789;22;20170;-88
2022/06/25 02:01:06;;;;;;;0.30;0.30;;;;;;;;;;6264560;22;20197;-89
2022/06/25 02:04:11;;;;;;;1.23;0.63;;;;;;;;;;6284636;22;20165;-88
2022/06/25 02:07:16;;;;;;;0.20;0.20;;;;;;;;;;6264563;22;20166;-87
2022/06/25 02:10:22;;;;;;;0.20;0.20;;;;;;;;;;6282432;22;20173;-88
2022/06/25 02:13:28;;;;;;;0.20;0.20;;;;;;;;;;6262222;22;20189;-87
2022/06/25 02:16:33;;;;;;;0.50;0.50;;;;;;;;;;6262852;22;20170;-88
2022/06/25 02:19:38;;;;;;;0.20;0.20;;;;;;;;;;6263992;22;20178;-89
2022/06/25 02:23:08;;;;;;;0.20;0.20;;;;;;;;;;6263160;22;20166;-89
2022/06/25 02:26:15;;;;;;;0.20;0.20;;;;;;;;;;6266022;22;20170;-89
2022/06/25 02:29:20;;;;;;;0.20;0.20;;;;;;;;;;6265183;22;20170;-89
2022/06/25 02:32:25;;;;;;;0.20;0.20;;;;;;;;;;6264634;22;20197;-89
2022/06/25 02:35:31;;;;;;;0.30;0.30;;;;;;;;;;6265214;22;20178;-90
2022/06/25 02:38:36;;;;;;;0.13;0.13;;;;;;;;;;6264169;22;20169;-88
2022/06/25 02:41:43;;;;;;;0.28;0.28;;;;;;;;;;6263869;22;20185;-89
2022/06/25 02:44:48;;;;;;;0.30;0.30;;;;;;;;;;6263767;22;20164;-89
2022/06/25 02:47:53;;;;;;;0.20;0.20;;;;;;;;;;6263741;22;20146;-89
2022/06/25 02:50:58;;;;;;;0.20;0.20;;;;;;;;;;6263983;22;20251;-89
2022/06/25 02:54:03;;;;;;;0.20;0.20;;;;;;;;;;6265237;22;20194;-90
2022/06/25 03:00:35;;;;;;;0.65;0.40;;;;;;;;;;6264178;22;20185;-90
2022/06/25 03:03:40;;;;;;;0.30;0.30;;;;;;;;;;6265862;22;20154;-88
2022/06/25 03:06:45;;;;;;;0.20;0.20;;;;;;;;;;6267321;22;20170;-90
2022/06/25 03:09:54;;;;;;;0.20;0.20;;;;;;;;;;6266420;22;20181;-90
2022/06/25 03:13:04;;;;;;;0.88;0.82;;;;;;;;;;6266493;22;20330;-89
2022/06/25 03:16:09;;;;;;;0.20;0.20;;;;;;;;;;6265144;22;20166;-91
2022/06/25 03:19:15;;;;;;;0.20;0.20;;;;;;;;;;6267495;22;20162;-89
2022/06/25 03:22:36;;;;;;;0.30;0.30;;;;;;;;;;6267255;22;20170;-88
2022/06/25 03:25:42;;;;;;;0.20;0.20;;;;;;;;;;6267525;22;20170;-88
2022/06/25 03:28:49;;;;;;;0.50;0.50;;;;;;;;;;6285514;22;20162;-88
2022/06/25 03:31:54;;;;;;;0.25;0.25;;;;;;;;;;6267013;22;20216;-89
2022/06/25 03:35:25;;;;;;;0.20;0.20;;;;;;;;;;6266529;22;20241;-86
2022/06/25 03:38:46;;;;;;;0.30;0.30;;;;;;;;;;6267186;22;20500;-87
2022/06/25 03:41:52;;;;;;;0.50;0.50;;;;;;;;;;6265844;22;20170;-89
2022/06/25 03:45:12;;;;;;;0.20;0.20;;;;;;;;;;6264955;22;20158;-89
2022/06/25 03:48:17;;;;;;;0.57;0.50;;;;;;;;;;6265933;22;20165;-88
2022/06/25 03:52:01;;;;;;;1.70;0.55;;;;;;;;;;6191728;23;20172;-88
2022/06/25 03:55:07;;;;;;;0.20;0.20;;;;;;;;;;6190459;23;20195;-89
2022/06/25 03:58:13;;;;;;;0.20;0.20;;;;;;;;;;6266171;22;20158;-88
2022/06/25 04:01:21;;;;;;;0.20;0.20;;;;;;;;;;6266055;22;20170;-89
2022/06/25 04:04:26;;;;;;;0.20;0.20;;;;;;;;;;6266738;22;20284;-86
2022/06/25 04:07:31;;;;;;;0.20;0.20;;;;;;;;;;6265357;22;20656;-88
2022/06/25 04:10:37;;;;;;;0.30;0.30;;;;;;;;;;6266398;22;20165;-89
2022/06/25 04:13:43;;;;;;;0.20;0.20;;;;;;;;;;6266552;22;20197;-89
2022/06/25 04:16:51;;;;;;;0.20;0.20;;;;;;;;;;6268720;22;20276;-87
2022/06/25 04:19:56;;;;;;;0.20;0.20;;;;;;;;;;6267769;22;20189;-87
2022/06/25 04:23:02;;;;;;;0.38;0.38;;;;;;;;;;6268270;22;20162;-88
2022/06/25 04:26:07;;;;;;;0.20;0.20;;;;;;;;;;6267567;22;20170;-88
2022/06/25 04:29:12;;;;;;;1.13;0.55;;;;;;;;;;6268575;22;20165;-88
2022/06/25 04:32:29;;;;;;;0.20;0.20;;;;;;;;;;6268233;22;20285;-88
2022/06/25 04:35:48;;;;;;;8.43;1.55;;;;;;;;;;6268458;22;20182;-89
2022/06/25 04:39:12;;;;;;;0.20;0.20;;;;;;;;;;6287029;22;20162;-89
2022/06/25 04:42:18;;;;;;;0.40;0.40;;;;;;;;;;6267253;22;20216;-90
2022/06/25 04:45:23;;;;;;;0.35;0.35;;;;;;;;;;6266413;22;20162;-90
2022/06/25 04:48:47;;;;;;;0.30;0.30;;;;;;;;;;6266714;22;20228;-88
2022/06/25 04:52:01;;;;;;;0.40;0.40;;;;;;;;;;6269122;22;20170;-88
2022/06/25 04:55:06;;;;;;;0.65;0.65;;;;;;;;;;6267144;22;20232;-88
2022/06/25 04:58:12;;;;;;;0.20;0.20;;;;;;;;;;6270327;22;20209;-88
2022/06/25 05:01:52;;;;;;;0.30;0.30;;;;;;;;;;6197296;22;20164;-87
2022/06/25 05:05:06;;;;;;;0.30;0.30;;;;;;;;;;6267181;22;20174;-88
2022/06/25 05:08:11;;;;;;;0.20;0.20;;;;;;;;;;6267739;22;20162;-87
2022/06/25 05:11:17;;;;;;;0.20;0.20;;;;;;;;;;6268549;22;20240;-89
2022/06/25 05:14:22;;;;;;;1.08;0.52;;;;;;;;;;6268287;22;20262;-88
2022/06/25 05:17:29;;;;;;;0.50;0.50;;;;;;;;;;6267671;22;20169;-87
2022/06/25 05:20:39;;;;;;;0.30;0.30;;;;;;;;;;6267411;22;20284;-88
2022/06/25 05:23:44;;;;;;;0.45;0.45;;;;;;;;;;6267164;22;20170;-88
2022/06/25 05:26:49;;;;;;;0.20;0.20;;;;;;;;;;6268529;22;20166;-90
2022/06/25 05:29:55;;;;;;;0.50;0.50;;;;;;;;;;6267159;22;20188;-88
2022/06/25 05:33:01;;;;;;;0.20;0.20;;;;;;;;;;6266203;22;20599;-88
2022/06/25 05:36:07;;;;;;;0.30;0.30;;;;;;;;;;6267603;22;20288;-90
2022/06/25 05:39:13;;;;;;;0.35;0.35;;;;;;;;;;6265288;22;20300;-88
2022/06/25 05:42:19;;;;;;;0.20;0.20;;;;;;;;;;6266426;22;20162;-89
2022/06/25 05:45:25;;;;;;;0.30;0.30;;;;;;;;;;6265740;22;20166;-89
2022/06/25 05:48:31;;;;;;;0.20;0.20;;;;;;;;;;6268709;22;20218;-90
2022/06/25 05:51:37;;;;;;;0.22;0.22;;;;;;;;;;6268283;22;20185;-87
2022/06/25 05:54:43;;;;;;;0.38;0.38;;;;;;;;;;6267956;22;20700;-88
2022/06/25 05:57:52;;;;;;;0.25;0.25;;;;;;;;;;6270121;22;20165;-89
2022/06/25 06:00:58;;;;;;;0.30;0.30;;;;;;;;;;6288183;22;20236;-89
2022/06/25 06:04:04;;;;;;;0.15;0.15;;;;;;;;;;6270104;22;20162;-89
2022/06/25 06:07:11;;;;;;;1.17;0.80;;;;;;;;;;6267504;22;20174;-88
2022/06/25 06:10:16;;;;;;;0.20;0.20;;;;;;;;;;6266858;22;20166;-88
2022/06/25 06:13:21;;;;;;;0.20;0.20;;;;;;;;;;6267015;22;20190;-88
2022/06/25 06:16:26;;;;;;;0.22;0.22;;;;;;;;;;6266454;22;20165;-89
2022/06/25 06:19:31;;;;;;;0.45;0.40;;;;;;;;;;6263722;22;20182;-88
2022/06/25 06:22:38;;;;;;;0.20;0.20;;;;;;;;;;6266382;22;20150;-88
2022/06/25 06:25:43;;;;;;;0.20;0.20;;;;;;;;;;6268905;22;20235;-89
2022/06/25 06:28:48;;;;;;;0.20;0.20;;;;;;;;;;6270609;22;20208;-88
2022/06/25 06:31:53;;;;;;;0.28;0.28;;;;;;;;;;6271562;22;20215;-88
2022/06/25 06:34:58;;;;;;;4.65;0.85;;;;;;;;;;6269869;22;20196;-89
2022/06/25 06:38:05;;;;;;;0.30;0.30;;;;;;;;;;6272146;22;20162;-88
2022/06/25 06:41:12;;;;;;;0.20;0.20;;;;;;;;;;6271307;22;20177;-88
2022/06/25 06:44:18;;;;;;;0.22;0.22;;;;;;;;;;6270258;22;20174;-88
2022/06/25 06:47:23;;;;;;;0.25;0.25;;;;;;;;;;6269601;22;20209;-89
2022/06/25 06:50:28;;;;;;;0.20;0.20;;;;;;;;;;6270001;22;20165;-88
2022/06/25 06:53:35;;;;;;;0.20;0.20;;;;;;;;;;6268575;22;20194;-88
2022/06/25 06:56:40;;;;;;;0.20;0.20;;;;;;;;;;6268390;22;20190;-91
2022/06/25 06:59:45;;;;;;;0.75;0.45;;;;;;;;;;6270883;22;20165;-85
2022/06/25 07:02:50;;;;;;;0.20;0.20;;;;;;;;;;6272073;22;20248;-89
2022/06/25 07:05:55;;;;;;;0.28;0.28;;;;;;;;;;6271166;22;20385;-88
2022/06/25 07:09:03;;;;;;;0.20;0.20;;;;;;;;;;6270604;22;20230;-89
2022/06/25 07:12:11;;;;;;;0.32;0.32;;;;;;;;;;6269693;22;20493;-89
2022/06/25 07:15:16;;;;;;;2.60;0.50;;;;;;;;;;6267802;22;20197;-90
2022/06/25 07:18:22;;;;;;;2.35;0.68;;;;;;;;;;6268060;22;20169;-90
2022/06/25 07:21:28;;;;;;;5.68;1.25;;;;;;;;;;6270249;22;20153;-88
2022/06/25 07:24:34;;;;;;;1.60;0.98;;;;;;;;;;6271948;22;20170;-90
2022/06/25 07:39:27;;;;;;;3.65;1.20;;;;;;;;;;6247277;22;20526;31
2022/06/25 07:42:34;;;;;;;2.50;1.45;;;;;;;;;;6208728;23;20195;-89
2022/06/25 07:45:40;;;;;;;2.10;1.35;;;;;;;;;;6205982;23;20243;-89
2022/06/25 07:48:50;;;;;;;2.10;1.23;;;;;;;;;;6205528;23;20195;-88
2022/06/25 07:51:57;;;;;;;3.80;1.10;;;;;;;;;;6221607;23;20208;-88
2022/06/25 07:55:03;;;;;;;4.72;1.35;;;;;;;;;;6204126;23;20194;-89
2022/06/25 07:58:13;;;;;;;4.15;1.25;;;;;;;;;;6206492;23;20527;-88
2022/06/25 08:01:20;;;;;;;2.85;1.25;;;;;;;;;;6215008;23;20214;-89
2022/06/25 08:04:25;;;;;;;3.70;1.33;;;;;;;;;;6223602;23;20249;-88
2022/06/25 08:07:31;;;;;;;5.68;1.75;;;;;;;;;;6234282;23;20412;-89
2022/06/25 08:10:36;;;;;;;4.07;2.03;;;;;;;;;;6238033;23;20175;-89
2022/06/25 08:13:48;;;;;;;2.67;1.35;;;;;;;;;;6236758;23;20559;-88
2022/06/25 08:16:54;;;;;;;2.08;1.33;;;;;;;;;;6237312;23;21008;-87
2022/06/25 08:20:00;;;;;;;2.17;1.38;;;;;;;;;;6236698;23;20198;-88
2022/06/25 08:23:05;;;;;;;3.20;1.20;;;;;;;;;;6237802;23;20435;-88
2022/06/25 08:26:12;;;;;;;5.10;1.52;;;;;;;;;;6237475;23;20156;-88
2022/06/25 08:29:24;;;;;;;7.13;2.25;;;;;;;;;;6236796;23;20163;-88
2022/06/25 08:32:30;;;;;;;7.53;2.45;;;;;;;;;;6234759;23;20195;-88
2022/06/25 08:35:36;;;;;;;3.00;1.45;;;;;;;;;;6215462;23;20195;-88
2022/06/25 08:38:43;;;;;;;2.30;1.30;;;;;;;;;;6235512;23;20332;-87
2022/06/25 08:41:48;;;;;;;3.00;1.25;;;;;;;;;;6231336;23;20194;-88
2022/06/25 08:44:55;;;;;;;1.60;1.17;;;;;;;;;;6232436;23;20171;-88
2022/06/25 08:48:03;;;;;;;1.88;1.35;;;;;;;;;;6231606;23;20224;-87
2022/06/25 08:51:08;;;;;;;2.33;1.17;;;;;;;;;;6232843;23;20178;-88
2022/06/25 08:54:15;;;;;;;2.10;1.20;;;;;;;;;;6230767;23;20233;-87
2022/06/25 08:57:21;;;;;;;2.30;1.58;;;;;;;;;;6228545;23;20170;-89
2022/06/25 09:00:34;;;;;;;2.80;1.48;;;;;;;;;;6233653;23;20598;-87
2022/06/25 09:03:42;;;;;;;2.47;1.40;;;;;;;;;;6225511;23;20404;-88
2022/06/25 09:06:48;;;;;;;1.52;1.33;;;;;;;;;;6225545;23;20179;-88
2022/06/25 09:09:54;;;;;;;2.78;1.30;;;;;;;;;;6241417;23;20503;-87
2022/06/25 09:13:00;;;;;;;5.10;1.52;;;;;;;;;;6241559;23;20159;-89
2022/06/25 09:16:24;;;;;;;3.65;1.40;;;;;;;;;;6237271;23;20187;-87
2022/06/25 09:19:31;;;;;;;3.53;1.45;;;;;;;;;;6223374;23;20175;-92
2022/06/25 09:22:37;;;;;;;3.72;1.30;;;;;;;;;;6223287;23;20448;-89
2022/06/25 09:25:43;;;;;;;3.17;1.50;;;;;;;;;;6223344;23;20167;-89
2022/06/25 09:28:51;;;;;;;4.47;1.48;;;;;;;;;;6223212;23;20473;-88
2022/06/25 09:31:59;;;;;;;2.50;1.25;;;;;;;;;;6223276;23;20647;-87
2022/06/25 09:35:09;;;;;;;1.60;1.33;;;;;;;;;;6221883;23;20203;-88
2022/06/25 09:38:16;;;;;;;3.15;1.27;;;;;;;;;;6225417;23;20178;-90
2022/06/25 09:41:24;;;;;;;3.17;1.10;;;;;;;;;;6249208;23;20189;-90
2022/06/25 09:44:30;;;;;;;3.20;1.27;;;;;;;;;;6255226;23;20175;-89
2022/06/25 09:47:38;;;;;;;1.33;1.10;;;;;;;;;;6239030;23;20218;-90
2022/06/25 09:50:44;;;;;;;1.92;1.10;;;;;;;;;;6240206;23;20173;-90
2022/06/25 09:53:50;;;;;;;8.10;2.45;;;;;;;;;;6235867;23;20531;-90
2022/06/25 09:56:56;;;;;;;2.90;1.15;;;;;;;;;;6236232;23;20197;-90
2022/06/25 10:00:02;;;;;;;3.28;1.25;;;;;;;;;;6236353;23;20201;-90
2022/06/25 10:03:23;;;;;;;2.88;1.33;;;;;;;;;;6256301;23;20170;-90
2022/06/25 10:06:28;;;;;;;4.50;1.10;;;;;;;;;;6239296;23;20167;-90
2022/06/25 10:09:34;;;;;;;2.42;1.10;;;;;;;;;;6237244;23;20220;-90
2022/06/25 10:12:40;;;;;;;2.95;0.82;;;;;;;;;;6238654;23;20189;-91
2022/06/25 10:15:47;;;;;;;2.55;1.00;;;;;;;;;;6236825;23;20216;-92
2022/06/25 10:18:54;;;;;;;2.63;1.20;;;;;;;;;;6236985;23;20220;-90
2022/06/25 10:22:00;;;;;;;1.85;1.00;;;;;;;;;;6237199;23;20166;-90
2022/06/25 10:25:11;;;;;;;5.25;1.23;;;;;;;;;;6236997;23;20169;-90
2022/06/25 10:28:17;;;;;;;5.43;1.20;;;;;;;;;;6238379;23;20182;-90
2022/06/25 10:31:22;;;;;;;2.28;1.10;;;;;;;;;;6236247;23;20174;-90
2022/06/25 10:34:29;;;;;;;4.07;1.15;;;;;;;;;;6237688;23;20198;-90
2022/06/25 10:37:50;;;;;;;3.38;1.25;;;;;;;;;;6237690;23;20260;-91
2022/06/25 10:40:57;;;;;;;4.18;1.30;;;;;;;;;;6240076;23;20178;-90
2022/06/25 10:44:03;;;;;;;2.83;1.33;;;;;;;;;;6236980;23;20186;-91
2022/06/25 10:47:10;;;;;;;3.55;1.00;;;;;;;;;;6218691;23;20170;-93
2022/06/25 10:53:54;;;;;;;3.53;1.00;;;;;;;;;;6236560;23;20397;-91
2022/06/25 10:57:00;;;;;;;3.08;1.38;;;;;;;;;;6236675;23;20166;-91
2022/06/25 11:00:08;;;;;;;3.85;1.20;;;;;;;;;;6237654;23;20297;-91
2022/06/25 11:03:15;;;;;;;9.55;1.50;;;;;;;;;;6237353;23;20193;-90
2022/06/25 11:09:53;;;;;;;2.38;1.17;;;;;;;;;;6235752;23;20202;-89
2022/06/25 11:12:59;;;;;;;1.73;0.98;;;;;;;;;;6248913;23;20158;-89
2022/06/25 11:16:13;;;;;;;3.20;0.80;;;;;;;;;;6254750;23;20205;-88
2022/06/25 11:19:19;;;;;;;1.80;0.90;;;;;;;;;;6236951;23;20618;-89
2022/06/25 11:22:26;;;;;;;2.10;0.90;;;;;;;;;;6233275;23;20173;-89
2022/06/25 11:29:10;;;;;;;2.75;0.93;;;;;;;;;;6241775;23;20170;-89
2022/06/25 11:32:16;;;;;;;4.57;1.02;;;;;;;;;;6238230;23;20208;-89
2022/06/25 11:35:26;;;;;;;1.77;1.10;;;;;;;;;;6236023;23;20189;-89
2022/06/25 11:38:34;;;;;;;2.00;1.05;;;;;;;;;;6234794;23;20242;-89
2022/06/25 11:41:39;;;;;;;3.95;1.10;;;;;;;;;;6233248;23;20553;-89
2022/06/25 11:44:46;;;;;;;2.47;0.77;;;;;;;;;;6234470;23;20189;-89
2022/06/25 11:47:51;;;;;;;1.50;0.82;;;;;;;;;;6239349;23;20474;-88
2022/06/25 11:51:01;;;;;;;3.20;0.90;;;;;;;;;;6242376;23;20237;-88
2022/06/25 11:54:08;;;;;;;1.77;0.82;;;;;;;;;;6243767;23;20170;-89
2022/06/25 11:57:18;;;;;;;2.65;0.95;;;;;;;;;;6235701;23;20619;-88
2022/06/25 12:00:23;;;;;;;8.75;1.08;;;;;;;;;;6237068;23;20189;-88
2022/06/25 12:03:30;;;;;;;1.75;0.90;;;;;;;;;;6244595;23;20189;-88
2022/06/25 12:06:35;;;;;;;3.67;0.88;;;;;;;;;;6244747;23;20170;-89
2022/06/25 12:09:42;;;;;;;3.35;1.00;;;;;;;;;;6242303;23;20177;-88
2022/06/25 12:12:48;;;;;;;2.60;0.80;;;;;;;;;;6241218;23;20238;-87
2022/06/25 12:15:58;;;;;;;1.20;1.00;;;;;;;;;;6243465;23;20201;-87
2022/06/25 12:19:03;;;;;;;1.20;0.80;;;;;;;;;;6239003;23;20577;-87
2022/06/25 12:22:19;;;;;;;1.55;0.90;;;;;;;;;;6258071;23;20175;-88
2022/06/25 12:25:28;;;;;;;2.35;0.95;;;;;;;;;;6252398;23;20161;-87
2022/06/25 12:28:37;;;;;;;2.05;0.85;;;;;;;;;;6270154;23;20166;-87
2022/06/25 12:31:43;;;;;;;2.67;0.80;;;;;;;;;;6253738;23;20174;-87
2022/06/25 12:34:49;;;;;;;1.75;0.98;;;;;;;;;;6252727;23;20193;-88
2022/06/25 12:38:05;;;;;;;3.63;0.93;;;;;;;;;;6253310;23;20153;-86
2022/06/25 12:41:14;;;;;;;0.82;0.70;;;;;;;;;;6253153;23;20174;-88
2022/06/25 12:44:21;;;;;;;2.97;1.13;;;;;;;;;;6253581;23;20170;-88
2022/06/25 12:47:40;;;;;;;2.60;0.85;;;;;;;;;;6253412;23;20197;-87
2022/06/25 12:50:47;;;;;;;2.25;0.95;;;;;;;;;;6252060;23;20170;-88
2022/06/25 12:53:57;;;;;;;1.60;0.80;;;;;;;;;;6252326;23;20162;-85
2022/06/25 12:57:04;;;;;;;1.63;0.80;;;;;;;;;;6253350;23;20173;-87
2022/06/25 13:00:17;;;;;;;3.88;0.80;;;;;;;;;;6249664;23;20161;-87
2022/06/25 13:03:23;;;;;;;3.28;1.10;;;;;;;;;;6234021;23;20170;-88
2022/06/25 13:06:29;;;;;;;3.95;1.25;;;;;;;;;;6232809;23;20169;-88
2022/06/25 13:09:35;;;;;;;1.83;0.75;;;;;;;;;;6233838;23;20169;-88
2022/06/25 13:12:43;;;;;;;2.08;0.70;;;;;;;;;;6241463;23;20166;-88
2022/06/25 13:15:48;;;;;;;2.92;0.98;;;;;;;;;;6245992;23;20197;-88
2022/06/25 13:18:54;;;;;;;4.80;1.33;;;;;;;;;;6271405;23;20177;-88
2022/06/25 13:21:59;;;;;;;0.98;0.70;;;;;;;;;;6251882;23;20157;-88
2022/06/25 13:25:06;;;;;;;4.30;0.90;;;;;;;;;;6248649;23;20169;-89
2022/06/25 13:28:13;;;;;;;4.15;0.80;;;;;;;;;;6249703;23;20284;-88
2022/06/25 13:31:18;;;;;;;2.05;0.82;;;;;;;;;;6233184;23;20181;-88
2022/06/25 13:34:24;;;;;;;1.25;0.60;;;;;;;;;;6232249;23;20634;-88
2022/06/25 13:37:29;;;;;;;7.35;1.00;;;;;;;;;;6232938;23;20186;-89
2022/06/25 13:40:34;;;;;;;1.90;0.70;;;;;;;;;;6232569;23;20177;-88
2022/06/25 13:43:41;;;;;;;2.38;0.82;;;;;;;;;;6233042;23;20177;-87
2022/06/25 13:46:47;;;;;;;1.50;0.90;;;;;;;;;;6232184;23;20174;-87
2022/06/25 13:49:52;;;;;;;2.13;0.80;;;;;;;;;;6232108;23;20174;-87
2022/06/25 13:52:59;;;;;;;2.58;0.68;;;;;;;;;;6232734;23;20177;-87
2022/06/25 13:56:04;;;;;;;2.10;0.70;;;;;;;;;;6231258;23;20269;-88
2022/06/25 13:59:11;;;;;;;0.93;0.70;;;;;;;;;;6214880;23;20268;-87
2022/06/25 14:02:17;;;;;;;2.00;0.70;;;;;;;;;;6251441;23;20178;-87
2022/06/25 14:05:25;;;;;;;2.55;0.90;;;;;;;;;;6233853;23;20522;-87
2022/06/25 14:08:31;;;;;;;1.95;0.70;;;;;;;;;;6250916;23;20277;-88
2022/06/25 14:11:37;;;;;;;1.67;0.70;;;;;;;;;;6233139;23;20178;-88
2022/06/25 14:14:44;;;;;;;0.98;0.60;;;;;;;;;;6232287;23;20177;-89
2022/06/25 14:17:49;;;;;;;1.35;0.77;;;;;;;;;;6234275;23;20174;-89
2022/06/25 14:20:55;;;;;;;1.50;0.65;;;;;;;;;;6231356;23;20210;-89
2022/06/25 14:24:01;;;;;;;4.63;0.88;;;;;;;;;;6232512;23;20174;-90
2022/06/25 14:27:07;;;;;;;3.03;0.77;;;;;;;;;;6232941;23;20170;-89
2022/06/25 14:30:14;;;;;;;2.15;0.85;;;;;;;;;;6231965;23;20174;-90
2022/06/25 14:33:20;;;;;;;1.88;0.80;;;;;;;;;;6232799;23;20541;-88
2022/06/25 14:43:12;;;;;;;2.25;0.85;;;;;;;;;;6249678;23;20252;-89
2022/06/25 14:46:20;;;;;;;4.50;1.27;;;;;;;;;;6231210;23;20169;-90
2022/06/25 14:49:26;;;;;;;3.30;0.95;;;;;;;;;;6249516;23;20253;-89
2022/06/25 14:52:33;;;;;;;1.92;0.80;;;;;;;;;;6247578;23;20218;-90
2022/06/25 14:55:39;;;;;;;1.38;0.82;;;;;;;;;;6239444;23;20237;-89
2022/06/25 14:58:45;;;;;;;2.85;0.88;;;;;;;;;;6234711;23;20174;-89
2022/06/25 15:01:53;;;;;;;4.88;0.90;;;;;;;;;;6235218;23;20217;-88
2022/06/25 15:04:59;;;;;;;2.28;0.63;;;;;;;;;;6235098;23;20174;-90
2022/06/25 15:08:04;;;;;;;2.33;0.90;;;;;;;;;;6235121;23;20415;-89
2022/06/25 15:11:10;;;;;;;2.85;1.05;;;;;;;;;;6234895;23;20268;-89
2022/06/25 15:14:16;;;;;;;2.85;0.98;;;;;;;;;;6235340;23;20217;-88
2022/06/25 15:17:23;;;;;;;4.70;1.00;;;;;;;;;;6235625;23;20233;-89
2022/06/25 15:20:28;;;;;;;4.22;0.80;;;;;;;;;;6233571;23;20174;-90
2022/06/25 15:23:33;;;;;;;0.70;0.70;;;;;;;;;;6234968;23;20292;-89
2022/06/25 15:26:38;;;;;;;4.65;0.70;;;;;;;;;;6235113;23;20174;-89
2022/06/25 15:29:45;;;;;;;1.23;0.77;;;;;;;;;;6234674;23;20187;-90
2022/06/25 15:32:53;;;;;;;1.00;0.90;;;;;;;;;;6217815;23;20399;-89
2022/06/25 15:35:59;;;;;;;1.30;0.90;;;;;;;;;;6234736;23;20194;-90
2022/06/25 15:39:04;;;;;;;5.20;1.35;;;;;;;;;;6235494;23;20218;-88
2022/06/25 15:42:10;;;;;;;1.50;0.90;;;;;;;;;;6233883;23;20205;-88
2022/06/25 15:45:15;;;;;;;1.02;0.90;;;;;;;;;;6233882;23;20533;-87
2022/06/25 15:48:21;;;;;;;1.58;0.88;;;;;;;;;;6233486;23;20499;-89
2022/06/25 15:51:26;;;;;;;1.90;0.90;;;;;;;;;;6233303;23;20214;-88
2022/06/25 15:54:31;;;;;;;2.40;1.00;;;;;;;;;;6233062;23;20223;-87
2022/06/25 15:57:37;;;;;;;3.00;1.40;;;;;;;;;;6232756;23;20317;-88
2022/06/25 16:00:42;;;;;;;2.50;1.10;;;;;;;;;;6232843;23;20216;-88
2022/06/25 16:03:48;;;;;;;2.53;0.80;;;;;;;;;;6233088;23;20176;-88
2022/06/25 16:06:54;;;;;;;5.15;1.00;;;;;;;;;;6232959;23;20170;-88
2022/06/25 16:10:00;;;;;;;3.45;0.80;;;;;;;;;;6233973;23;20249;-88
2022/06/25 16:13:05;;;;;;;1.45;1.08;;;;;;;;;;6234404;23;20450;-90
2022/06/25 16:16:11;;;;;;;0.90;0.70;;;;;;;;;;6234446;23;20593;-89
2022/06/25 16:19:18;;;;;;;3.20;1.45;;;;;;;;;;6235502;23;20170;-90
2022/06/25 16:22:24;;;;;;;1.88;1.17;;;;;;;;;;6253463;23;20251;-89
2022/06/25 16:25:31;;;;;;;4.20;0.98;;;;;;;;;;6253679;23;20154;-90
2022/06/25 16:28:37;;;;;;;1.70;1.00;;;;;;;;;;6240570;23;20230;-90
2022/06/25 16:31:44;;;;;;;1.48;1.20;;;;;;;;;;6236811;23;20299;-89
2022/06/25 16:34:52;;;;;;;2.35;1.00;;;;;;;;;;6242898;23;20174;-89
2022/06/25 16:38:01;;;;;;;2.33;0.90;;;;;;;;;;6239616;23;20547;-89
2022/06/25 16:41:07;;;;;;;1.80;0.90;;;;;;;;;;6238682;23;20206;-89
2022/06/25 16:44:13;;;;;;;2.03;1.30;;;;;;;;;;6237730;23;20286;-89
2022/06/25 16:47:18;;;;;;;1.85;1.05;;;;;;;;;;6238856;23;20170;-89
2022/06/25 16:50:29;;;;;;;5.93;1.58;;;;;;;;;;6236149;23;20418;-90
2022/06/25 16:53:35;;;;;;;4.38;1.55;;;;;;;;;;6236963;23;20175;-89
2022/06/25 16:56:40;;;;;;;4.32;2.20;;;;;;;;;;6237432;23;20194;-88
2022/06/25 16:59:46;;;;;;;1.45;1.20;;;;;;;;;;6253045;23;20167;-89
2022/06/25 17:02:52;;;;;;;1.52;1.17;;;;;;;;;;6243668;23;20178;-88
2022/06/25 17:05:58;;;;;;;5.80;1.90;;;;;;;;;;6243605;23;20388;-89
2022/06/25 17:09:05;;;;;;;2.30;1.10;;;;;;;;;;6255886;23;20217;-89
2022/06/25 17:12:10;;;;;;;2.00;1.13;;;;;;;;;;6236314;23;20291;-89
2022/06/25 17:15:16;;;;;;;2.78;1.00;;;;;;;;;;6242436;23;20408;-90
2022/06/25 17:18:22;;;;;;;3.95;1.60;;;;;;;;;;6241554;23;20170;-89
2022/06/25 17:21:31;;;;;;;6.22;2.08;;;;;;;;;;6236461;23;20174;-88
2022/06/25 17:24:37;;;;;;;2.75;1.00;;;;;;;;;;6254425;23;20174;-89
2022/06/25 17:27:42;;;;;;;1.80;1.10;;;;;;;;;;6244942;23;20253;-89
2022/06/25 17:30:49;;;;;;;3.13;1.08;;;;;;;;;;6238360;23;20171;-89
2022/06/25 17:33:55;;;;;;;2.88;1.17;;;;;;;;;;6236989;23;20546;-89
2022/06/25 17:37:02;;;;;;;2.88;1.02;;;;;;;;;;6236509;23;20258;-89
2022/06/25 17:40:18;;;;;;;3.15;1.00;;;;;;;;;;6245502;23;20384;-88
2022/06/25 17:43:25;;;;;;;2.25;1.10;;;;;;;;;;6252153;23;20178;-90
2022/06/25 17:46:31;;;;;;;1.10;0.90;;;;;;;;;;6251691;23;20220;-89
2022/06/25 17:49:38;;;;;;;2.55;1.10;;;;;;;;;;6246864;23;20174;-90
2022/06/25 17:52:54;;;;;;;1.23;0.90;;;;;;;;;;6246774;23;20242;-89
2022/06/25 17:56:00;;;;;;;2.60;1.17;;;;;;;;;;6245381;23;20175;-88
2022/06/25 17:59:06;;;;;;;1.00;0.90;;;;;;;;;;6239904;23;20230;-88
2022/06/25 18:02:11;;;;;;;1.42;0.93;;;;;;;;;;6240615;23;20224;-89
2022/06/25 18:05:18;;;;;;;1.20;0.90;;;;;;;;;;6253348;23;20169;-89
2022/06/25 18:08:25;;;;;;;4.25;1.13;;;;;;;;;;6251426;23;20174;-88
2022/06/25 18:11:32;;;;;;;1.48;1.00;;;;;;;;;;6233784;23;20185;-88
2022/06/25 18:14:38;;;;;;;2.97;1.20;;;;;;;;;;6238695;23;20262;-89
2022/06/25 18:17:44;;;;;;;7.25;2.05;;;;;;;;;;6223043;23;20430;-89
2022/06/25 18:20:50;;;;;;;4.32;2.10;;;;;;;;;;6236151;23;20174;-87
2022/06/25 18:23:58;;;;;;;3.65;1.30;;;;;;;;;;6237252;23;20249;-87
2022/06/25 18:27:06;;;;;;;8.57;2.00;;;;;;;;;;6254989;23;20167;-87
2022/06/25 18:30:13;;;;;;;5.15;2.20;;;;;;;;;;6219711;23;20262;-87
2022/06/25 18:33:19;;;;;;;3.55;2.22;;;;;;;;;;6237878;23;20293;-87
2022/06/25 18:36:26;;;;;;;5.15;1.88;;;;;;;;;;6236582;23;20198;-87
2022/06/25 18:39:33;;;;;;;4.70;2.30;;;;;;;;;;6238147;23;20177;-87
2022/06/25 18:42:40;;;;;;;4.80;2.25;;;;;;;;;;6237857;23;20201;-88
2022/06/25 18:45:46;;;;;;;6.45;2.33;;;;;;;;;;6238602;23;20175;-87
2022/06/25 18:48:53;;;;;;;6.70;2.33;;;;;;;;;;6238630;23;20202;-88
2022/06/25 18:52:02;;;;;;;4.65;2.17;;;;;;;;;;6238105;23;20562;-87
2022/06/25 18:55:10;;;;;;;4.70;2.80;;;;;;;;;;6235005;23;20167;-88
2022/06/25 18:58:16;;;;;;;6.85;3.50;;;;;;;;;;6254222;23;20193;-87
2022/06/25 19:01:21;;;;;;;8.15;4.32;;;;;;;;;;6234358;23;20174;-87
2022/06/25 19:04:27;;;;;;;11.73;3.83;;;;;;;;;;6236125;23;20175;-87
2022/06/25 19:07:35;;;;;;;7.32;2.53;;;;;;;;;;6238152;23;20166;-88
2022/06/25 19:10:43;;;;;;;5.00;2.50;;;;;;;;;;6236901;23;20525;-86
2022/06/25 19:13:48;;;;;;;6.72;3.15;;;;;;;;;;6236654;23;20162;-89
2022/06/25 19:16:55;;;;;;;6.00;2.53;;;;;;;;;;6222953;23;20198;-88
2022/06/25 19:20:02;;;;;;;5.07;2.25;;;;;;;;;;6238306;23;20336;-89
2022/06/25 19:23:09;;;;;;;6.40;3.53;;;;;;;;;;6237864;23;20170;-89
2022/06/25 19:26:29;;;;;;;6.00;3.90;;;;;;;;;;6239119;23;20170;-88
2022/06/25 19:29:37;;;;;;;4.93;3.08;;;;;;;;;;6239379;23;20217;-88
2022/06/25 19:32:42;;;;;;;6.63;2.92;;;;;;;;;;6253301;23;20175;-88
2022/06/25 19:35:47;;;;;;;5.25;3.10;;;;;;;;;;6236137;23;20178;-87
2022/06/25 19:38:54;;;;;;;6.20;2.72;;;;;;;;;;6235333;23;20170;-88
2022/06/25 19:42:01;;;;;;;5.00;2.88;;;;;;;;;;6236138;23;20190;-88
2022/06/25 19:45:10;;;;;;;7.30;3.10;;;;;;;;;;6236865;23;20173;-87
2022/06/25 19:48:16;;;;;;;5.95;2.50;;;;;;;;;;6237693;23;20236;-88
2022/06/25 19:51:21;;;;;;;6.75;2.78;;;;;;;;;;6237166;23;20511;-88
2022/06/25 19:54:26;;;;;;;6.13;2.72;;;;;;;;;;6253860;23;20519;-88
2022/06/25 19:57:31;;;;;;;9.68;2.92;;;;;;;;;;6260537;23;20190;-88
2022/06/25 20:00:40;;;;;;;10.98;2.50;;;;;;;;;;6240478;23;20174;-88
2022/06/25 20:03:46;;;;;;;6.13;2.65;;;;;;;;;;6234755;23;20174;-89
2022/06/25 20:06:52;;;;;;;6.85;2.17;;;;;;;;;;6238260;23;20298;-87